EIN602 EIDW-EHAM
Flight info
| Callsign | EIN602 |
|---|---|
| Flight time | N/A |
| Altitude | 37000 |
| Route | ENDEQ1E ENDEQ Q36 ALAVA Z195 MALUD UL975 WAL M16 DOLAS L603 LAMSO |
| Aircraft | A321/M-SDE3FGHIRWY/LB1 |
Departure
| Time | 2026-05-07 15:13 |
|---|---|
| Airport | Dublin Airport (EIDW) |
Arrival
| Time | N/A |
|---|---|
| Airport | Amsterdam Airport Schiphol (EHAM) |
| Time | Latitude | Longitude | Altitude | Speed | Heading |
|---|---|---|---|---|---|
| 2026-05-07 14:34 | 53.42678 | -6.24635 | 211 ft | 0 kts | 157° |
| 2026-05-07 15:02 | 53.42679 | -6.24635 | 211 ft | 1 kts | 157° |
| 2026-05-07 15:03 | 53.42695 | -6.24647 | 212 ft | 1 kts | 157° |
| 2026-05-07 15:03 | 53.42696 | -6.24648 | 211 ft | 0 kts | 157° |
| 2026-05-07 15:03 | 53.42712 | -6.24659 | 217 ft | 3 kts | 157° |
| 2026-05-07 15:04 | 53.42730 | -6.24667 | 219 ft | 3 kts | 204° |
| 2026-05-07 15:04 | 53.42742 | -6.24652 | 217 ft | 0 kts | 232° |
| 2026-05-07 15:06 | 53.42741 | -6.24652 | 211 ft | 0 kts | 232° |
| 2026-05-07 15:06 | 53.42738 | -6.24660 | 217 ft | 2 kts | 232° |
| 2026-05-07 15:06 | 53.42722 | -6.24708 | 218 ft | 6 kts | 250° |
| 2026-05-07 15:06 | 53.42708 | -6.24768 | 215 ft | 5 kts | 242° |
| 2026-05-07 15:07 | 53.42669 | -6.24864 | 212 ft | 14 kts | 242° |
| 2026-05-07 15:07 | 53.42713 | -6.24975 | 211 ft | 12 kts | 327° |
| 2026-05-07 15:07 | 53.42777 | -6.25051 | 211 ft | 11 kts | 309° |
| 2026-05-07 15:07 | 53.42795 | -6.25162 | 211 ft | 10 kts | 272° |
| 2026-05-07 15:08 | 53.42786 | -6.25262 | 214 ft | 10 kts | 240° |
| 2026-05-07 15:08 | 53.42697 | -6.25423 | 213 ft | 26 kts | 228° |
| 2026-05-07 15:08 | 53.42560 | -6.25656 | 211 ft | 28 kts | 224° |
| 2026-05-07 15:08 | 53.42421 | -6.25888 | 219 ft | 28 kts | 225° |
| 2026-05-07 15:09 | 53.42288 | -6.26123 | 211 ft | 27 kts | 239° |
| 2026-05-07 15:09 | 53.42273 | -6.26431 | 211 ft | 27 kts | 275° |
| 2026-05-07 15:09 | 53.42290 | -6.26736 | 211 ft | 26 kts | 275° |
| 2026-05-07 15:09 | 53.42304 | -6.27037 | 211 ft | 26 kts | 274° |
| 2026-05-07 15:10 | 53.42320 | -6.27332 | 211 ft | 25 kts | 277° |
| 2026-05-07 15:10 | 53.42339 | -6.27619 | 216 ft | 24 kts | 275° |
| 2026-05-07 15:10 | 53.42354 | -6.27898 | 215 ft | 24 kts | 275° |
| 2026-05-07 15:10 | 53.42348 | -6.28116 | 219 ft | 13 kts | 226° |
| 2026-05-07 15:11 | 53.42281 | -6.28084 | 214 ft | 11 kts | 125° |
| 2026-05-07 15:11 | 53.42220 | -6.27949 | 212 ft | 17 kts | 147° |
| 2026-05-07 15:11 | 53.42180 | -6.27877 | 212 ft | 0 kts | 95° |
| 2026-05-07 15:12 | 53.42180 | -6.27872 | 212 ft | 4 kts | 95° |
| 2026-05-07 15:12 | 53.42155 | -6.27423 | 212 ft | 77 kts | 95° |
| 2026-05-07 15:12 | 53.42086 | -6.26175 | 218 ft | 136 kts | 95° |
| 2026-05-07 15:12 | 53.41977 | -6.24487 | 639 ft | 145 kts | 102° |
| 2026-05-07 15:13 | 53.41877 | -6.22771 | 1195 ft | 149 kts | 99° |
| 2026-05-07 15:13 | 53.41787 | -6.21024 | 1852 ft | 151 kts | 99° |
| 2026-05-07 15:13 | 53.41687 | -6.19191 | 2376 ft | 168 kts | 101° |
| 2026-05-07 15:13 | 53.41565 | -6.17111 | 2680 ft | 190 kts | 101° |
| 2026-05-07 15:14 | 53.41430 | -6.14782 | 2948 ft | 212 kts | 101° |
| 2026-05-07 15:14 | 53.41282 | -6.12186 | 3179 ft | 236 kts | 99° |
| 2026-05-07 15:14 | 53.41121 | -6.09299 | 3561 ft | 260 kts | 99° |
| 2026-05-07 15:14 | 53.40956 | -6.06260 | 4327 ft | 268 kts | 99° |
| 2026-05-07 15:15 | 53.40946 | -6.03095 | 5168 ft | 276 kts | 86° |
| 2026-05-07 15:15 | 53.41170 | -5.99885 | 6061 ft | 279 kts | 86° |
| 2026-05-07 15:15 | 53.41406 | -5.96630 | 6897 ft | 283 kts | 86° |
| 2026-05-07 15:15 | 53.41644 | -5.93314 | 7697 ft | 288 kts | 85° |
| 2026-05-07 15:16 | 53.41882 | -5.89956 | 8515 ft | 292 kts | 86° |
| 2026-05-07 15:16 | 53.42120 | -5.86541 | 9147 ft | 296 kts | 86° |
| 2026-05-07 15:16 | 53.42353 | -5.83144 | 9966 ft | 299 kts | 86° |
| 2026-05-07 15:16 | 53.42593 | -5.79587 | 10354 ft | 318 kts | 86° |
| 2026-05-07 15:17 | 53.42845 | -5.75774 | 10561 ft | 340 kts | 86° |
| 2026-05-07 15:17 | 53.43111 | -5.71772 | 11080 ft | 349 kts | 86° |
| 2026-05-07 15:17 | 53.43385 | -5.67697 | 11787 ft | 353 kts | 86° |
| 2026-05-07 15:17 | 53.43663 | -5.63590 | 12504 ft | 356 kts | 86° |
| 2026-05-07 15:18 | 53.43942 | -5.59427 | 13189 ft | 360 kts | 85° |
| 2026-05-07 15:18 | 53.44219 | -5.55272 | 13892 ft | 364 kts | 86° |
| 2026-05-07 15:18 | 53.44492 | -5.51038 | 14504 ft | 367 kts | 88° |
| 2026-05-07 15:18 | 53.44491 | -5.46746 | 15172 ft | 366 kts | 95° |
| 2026-05-07 15:19 | 53.44382 | -5.42457 | 15838 ft | 369 kts | 95° |
| 2026-05-07 15:19 | 53.44273 | -5.38126 | 16452 ft | 372 kts | 95° |
| 2026-05-07 15:19 | 53.44163 | -5.33757 | 17052 ft | 376 kts | 95° |
| 2026-05-07 15:19 | 53.44054 | -5.29403 | 17650 ft | 379 kts | 95° |
| 2026-05-07 15:20 | 53.43940 | -5.24904 | 18238 ft | 383 kts | 95° |
| 2026-05-07 15:20 | 53.43826 | -5.20463 | 18733 ft | 387 kts | 95° |
| 2026-05-07 15:20 | 53.43625 | -5.12957 | 19601 ft | 391 kts | 95° |
| 2026-05-07 15:20 | 53.43340 | -5.03766 | 20602 ft | 396 kts | 95° |
| 2026-05-07 15:21 | 53.43035 | -4.94454 | 21544 ft | 402 kts | 95° |
| 2026-05-07 15:21 | 53.42729 | -4.85142 | 22420 ft | 407 kts | 95° |
| 2026-05-07 15:21 | 53.42414 | -4.75572 | 23288 ft | 412 kts | 95° |
| 2026-05-07 15:21 | 53.42084 | -4.65894 | 24076 ft | 417 kts | 96° |
| 2026-05-07 15:22 | 53.41742 | -4.56155 | 24910 ft | 419 kts | 96° |
| 2026-05-07 15:22 | 53.41393 | -4.46362 | 25748 ft | 421 kts | 96° |
| 2026-05-07 15:22 | 53.41036 | -4.36513 | 26561 ft | 424 kts | 96° |
| 2026-05-07 15:22 | 53.40668 | -4.26591 | 27360 ft | 427 kts | 96° |
| 2026-05-07 15:23 | 53.40291 | -4.16728 | 28119 ft | 430 kts | 96° |
| 2026-05-07 15:23 | 53.39894 | -4.06684 | 28910 ft | 432 kts | 96° |
| 2026-05-07 15:23 | 53.39568 | -3.96580 | 29653 ft | 437 kts | 91° |
| 2026-05-07 15:23 | 53.40086 | -3.86357 | 30301 ft | 442 kts | 88° |
| 2026-05-07 15:24 | 53.40614 | -3.76066 | 30858 ft | 444 kts | 88° |
| 2026-05-07 15:24 | 53.41110 | -3.65733 | 31571 ft | 443 kts | 88° |
| 2026-05-07 15:24 | 53.41110 | -3.55511 | 32348 ft | 435 kts | 97° |
| 2026-05-07 15:24 | 53.40646 | -3.45421 | 33210 ft | 431 kts | 97° |
| 2026-05-07 15:25 | 53.40202 | -3.35432 | 33978 ft | 428 kts | 97° |
| 2026-05-07 15:25 | 53.39737 | -3.25143 | 34556 ft | 428 kts | 97° |
| 2026-05-07 15:25 | 53.39504 | -3.20153 | 34784 ft | 429 kts | 97° |
| 2026-05-07 15:25 | 53.39264 | -3.15073 | 35014 ft | 430 kts | 97° |